createdAt,value
2022-08-30T00:00:05.099Z,1017.98
2022-08-30T00:01:05.078Z,1017.98
2022-08-30T00:02:05.057Z,1017.99
2022-08-30T00:03:05.117Z,1017.98
2022-08-30T00:04:05.095Z,1018.02
2022-08-30T00:05:05.034Z,1017.98
2022-08-30T00:06:05.017Z,1017.97
2022-08-30T00:07:04.985Z,1017.96
2022-08-30T00:08:04.990Z,1018.00
2022-08-30T00:09:04.969Z,1018.06
2022-08-30T00:10:04.946Z,1018.07
2022-08-30T00:11:05.058Z,1018.07
2022-08-30T00:12:04.919Z,1018.07
2022-08-30T00:13:04.897Z,1018.06
2022-08-30T00:14:04.911Z,1018.05
2022-08-30T00:15:04.869Z,1018.01
2022-08-30T00:16:05.002Z,1018.01
2022-08-30T00:17:04.973Z,1018.01
2022-08-30T00:18:04.838Z,1017.98
2022-08-30T00:19:04.833Z,1018.02
2022-08-30T00:20:04.811Z,1018.04
2022-08-30T00:21:04.790Z,1017.99
2022-08-30T00:22:04.794Z,1018.03
2022-08-30T00:23:04.793Z,1018.04
2022-08-30T00:24:04.774Z,1018.03
2022-08-30T00:25:04.755Z,1018.05
2022-08-30T00:26:04.731Z,1018.08
2022-08-30T00:27:04.727Z,1018.01
2022-08-30T00:28:04.703Z,1018.02
2022-08-30T00:29:04.723Z,1018.01
2022-08-30T00:30:04.697Z,1018.02
2022-08-30T00:31:04.728Z,1018.01
2022-08-30T00:32:04.653Z,1018.03
2022-08-30T00:33:04.624Z,1018.00
2022-08-30T00:34:04.639Z,1018.02
2022-08-30T00:35:04.606Z,1017.96
2022-08-30T00:36:04.608Z,1017.98
2022-08-30T00:37:04.589Z,1018.02
2022-08-30T00:38:04.573Z,1018.01
2022-08-30T00:39:04.569Z,1017.99
2022-08-30T00:40:04.661Z,1018.01
2022-08-30T00:41:04.526Z,1018.07
2022-08-30T00:42:04.535Z,1017.98
2022-08-30T00:43:05.901Z,1018.03
2022-08-30T00:44:04.502Z,1018.08
2022-08-30T00:45:04.494Z,1018.02
2022-08-30T00:46:04.685Z,1017.99
2022-08-30T00:47:04.462Z,1018.02
2022-08-30T00:48:04.473Z,1018.01
2022-08-30T00:49:04.431Z,1017.94
2022-08-30T00:50:04.410Z,1017.96
2022-08-30T00:51:04.404Z,1017.96
2022-08-30T00:52:04.381Z,1017.98
2022-08-30T00:53:04.363Z,1017.95
2022-08-30T00:54:04.373Z,1018.03
2022-08-30T00:55:04.334Z,1017.97
2022-08-30T00:56:04.338Z,1018.06
2022-08-30T00:57:04.325Z,1018.02
2022-08-30T00:58:05.004Z,1018.04
2022-08-30T00:59:04.299Z,1018.01
2022-08-30T01:00:04.274Z,1018.05
2022-08-30T01:01:04.302Z,1018.04
2022-08-30T01:02:04.407Z,1018.05
2022-08-30T01:03:04.341Z,1018.07
2022-08-30T01:04:04.215Z,1018.03
2022-08-30T01:05:04.196Z,1018.04
2022-08-30T01:06:04.209Z,1017.99
2022-08-30T01:07:04.177Z,1017.99
2022-08-30T01:08:04.289Z,1017.99
2022-08-30T01:09:04.159Z,1017.96
2022-08-30T01:10:04.135Z,1017.98
2022-08-30T01:11:04.140Z,1017.99
2022-08-30T01:12:04.109Z,1017.97
2022-08-30T01:13:04.090Z,1017.98
2022-08-30T01:14:04.100Z,1017.98
2022-08-30T01:15:04.059Z,1017.96
2022-08-30T01:16:04.155Z,1017.96
2022-08-30T01:17:04.043Z,1017.95
2022-08-30T01:18:04.027Z,1017.99
2022-08-30T01:19:04.040Z,1017.99
2022-08-30T01:20:04.003Z,1017.94
2022-08-30T01:21:04.002Z,1017.96
2022-08-30T01:22:03.961Z,1017.95
2022-08-30T01:23:03.973Z,1017.88
2022-08-30T01:24:03.939Z,1017.91
2022-08-30T01:25:04.042Z,1017.86
2022-08-30T01:26:03.924Z,1017.90
2022-08-30T01:27:03.900Z,1017.91
2022-08-30T01:28:03.895Z,1017.90
2022-08-30T01:29:03.886Z,1017.87
2022-08-30T01:30:03.863Z,1017.92
2022-08-30T01:31:04.023Z,1017.90
2022-08-30T01:32:03.824Z,1017.88
2022-08-30T01:33:03.815Z,1017.88
2022-08-30T01:34:03.816Z,1017.88
2022-08-30T01:35:03.807Z,1017.85
2022-08-30T01:36:03.768Z,1017.88
2022-08-30T01:37:03.766Z,1017.91
2022-08-30T01:38:03.758Z,1017.89
2022-08-30T01:39:03.735Z,1017.94
2022-08-30T01:40:03.797Z,1017.91
2022-08-30T01:41:03.719Z,1017.98
2022-08-30T01:42:03.687Z,1017.95
2022-08-30T01:43:03.691Z,1018.00
2022-08-30T01:44:03.659Z,1017.98
2022-08-30T01:45:03.648Z,1018.01
2022-08-30T01:46:03.675Z,1018.05
2022-08-30T01:47:03.628Z,1018.01
2022-08-30T01:48:05.511Z,1017.99
2022-08-30T01:49:03.613Z,1018.04
2022-08-30T01:50:03.584Z,1018.02
2022-08-30T01:51:03.569Z,1018.01
2022-08-30T01:52:03.565Z,1018.05
2022-08-30T01:53:03.555Z,1018.06
2022-08-30T01:54:03.528Z,1018.08
2022-08-30T01:55:03.533Z,1018.06
2022-08-30T01:56:03.492Z,1018.06
2022-08-30T01:57:03.602Z,1018.06
2022-08-30T01:58:03.483Z,1018.06
2022-08-30T01:59:03.482Z,1018.06
2022-08-30T02:00:03.454Z,1018.00
2022-08-30T02:01:03.520Z,1018.02
2022-08-30T02:02:03.414Z,1017.99
2022-08-30T02:03:03.425Z,1018.00
2022-08-30T02:04:03.514Z,1017.98
2022-08-30T02:05:03.376Z,1018.00
2022-08-30T02:06:03.370Z,1018.04
2022-08-30T02:07:03.379Z,1017.96
2022-08-30T02:08:03.446Z,1017.99
2022-08-30T02:09:03.326Z,1018.01
2022-08-30T02:10:03.320Z,1018.03
2022-08-30T02:11:03.296Z,1018.00
2022-08-30T02:12:03.291Z,1018.01
2022-08-30T02:13:03.290Z,1018.02
2022-08-30T02:14:03.368Z,1017.97
2022-08-30T02:15:03.261Z,1017.97
2022-08-30T02:16:03.230Z,1018.01
2022-08-30T02:17:03.289Z,1018.00
2022-08-30T02:18:03.212Z,1017.99
2022-08-30T02:19:03.192Z,1018.02
2022-08-30T02:20:03.185Z,1018.03
2022-08-30T02:21:03.173Z,1018.05
2022-08-30T02:22:03.141Z,1018.09
2022-08-30T02:23:03.152Z,1018.10
2022-08-30T02:24:03.112Z,1018.12
2022-08-30T02:25:03.131Z,1018.15
2022-08-30T02:26:03.103Z,1018.08
2022-08-30T02:27:03.081Z,1018.11
2022-08-30T02:28:03.074Z,1018.10
2022-08-30T02:29:03.066Z,1018.11
2022-08-30T02:30:03.040Z,1018.16
2022-08-30T02:31:03.148Z,1018.17
2022-08-30T02:32:03.004Z,1018.17
2022-08-30T02:33:02.994Z,1018.19
2022-08-30T02:34:02.996Z,1018.19
2022-08-30T02:35:02.973Z,1018.21
2022-08-30T02:36:02.968Z,1018.21
2022-08-30T02:37:02.970Z,1018.22
2022-08-30T02:38:02.928Z,1018.23
2022-08-30T02:39:02.916Z,1018.22
2022-08-30T02:40:02.961Z,1018.26
2022-08-30T02:41:02.909Z,1018.26
2022-08-30T02:42:02.906Z,1018.28
2022-08-30T02:43:02.881Z,1018.31
2022-08-30T02:44:02.847Z,1018.27
2022-08-30T02:45:02.839Z,1018.31
2022-08-30T02:46:02.910Z,1018.27
2022-08-30T02:47:02.808Z,1018.31
2022-08-30T02:48:02.929Z,1018.26
2022-08-30T02:49:23.727Z,1018.29
2022-08-30T02:50:03.769Z,1018.31
2022-08-30T02:51:02.773Z,1018.29
2022-08-30T02:52:02.748Z,1018.22
2022-08-30T02:53:02.730Z,1018.27
2022-08-30T02:54:02.733Z,1018.25
2022-08-30T02:55:02.723Z,1018.26
2022-08-30T02:56:02.689Z,1018.28
2022-08-30T02:57:02.681Z,1018.21
2022-08-30T02:58:02.676Z,1018.24
2022-08-30T02:59:02.681Z,1018.24
2022-08-30T03:00:02.646Z,1018.20
2022-08-30T03:01:02.657Z,1018.18
2022-08-30T03:02:02.602Z,1018.20
2022-08-30T03:03:02.615Z,1018.15
2022-08-30T03:04:02.676Z,1018.17
2022-08-30T03:05:02.603Z,1018.18
2022-08-30T03:06:02.567Z,1018.16
2022-08-30T03:07:02.557Z,1018.17
2022-08-30T03:08:02.540Z,1018.21
2022-08-30T03:09:02.539Z,1018.19
2022-08-30T03:10:02.498Z,1018.19
2022-08-30T03:11:02.500Z,1018.17
2022-08-30T03:12:02.492Z,1018.18
2022-08-30T03:13:02.481Z,1018.18
2022-08-30T03:14:02.448Z,1018.17
2022-08-30T03:15:02.450Z,1018.15
2022-08-30T03:16:02.588Z,1018.16
2022-08-30T03:17:02.407Z,1018.17
2022-08-30T03:18:02.412Z,1018.22
2022-08-30T03:19:02.386Z,1018.16
2022-08-30T03:20:02.383Z,1018.20
2022-08-30T03:21:02.372Z,1018.18
2022-08-30T03:22:02.372Z,1018.21
2022-08-30T03:23:02.343Z,1018.17
2022-08-30T03:24:02.310Z,1018.14
2022-08-30T03:25:02.306Z,1018.16
2022-08-30T03:26:02.302Z,1018.16
2022-08-30T03:27:02.281Z,1018.17
2022-08-30T03:28:02.385Z,1018.18
2022-08-30T03:29:02.268Z,1018.17
2022-08-30T03:30:02.231Z,1018.20
2022-08-30T03:31:02.334Z,1018.23
2022-08-30T03:32:02.276Z,1018.20
2022-08-30T03:33:02.200Z,1018.21
2022-08-30T03:34:02.196Z,1018.22
2022-08-30T03:35:02.173Z,1018.18
2022-08-30T03:36:02.166Z,1018.20
2022-08-30T03:37:02.160Z,1018.21
2022-08-30T03:38:02.126Z,1018.16
2022-08-30T03:39:02.246Z,1018.14
2022-08-30T03:40:02.150Z,1018.11
2022-08-30T03:41:02.093Z,1018.15
2022-08-30T03:42:02.089Z,1018.14
2022-08-30T03:43:02.082Z,1018.16
2022-08-30T03:44:02.046Z,1018.14
2022-08-30T03:45:02.068Z,1018.11
2022-08-30T03:46:02.129Z,1018.06
2022-08-30T03:47:02.008Z,1018.09
2022-08-30T03:48:02.008Z,1018.13
2022-08-30T03:49:02.001Z,1018.10
2022-08-30T03:50:01.970Z,1018.12
2022-08-30T03:51:01.972Z,1018.12
2022-08-30T03:52:01.938Z,1018.12
2022-08-30T03:53:01.930Z,1018.08
2022-08-30T03:54:01.923Z,1018.12
2022-08-30T03:55:01.907Z,1018.10
2022-08-30T03:56:01.923Z,1018.11
2022-08-30T03:57:01.893Z,1018.11
2022-08-30T03:58:01.865Z,1018.08
2022-08-30T03:59:01.866Z,1018.09
2022-08-30T04:00:01.845Z,1018.08
2022-08-30T04:01:01.893Z,1018.13
2022-08-30T04:02:02.100Z,1018.10
2022-08-30T04:03:01.813Z,1018.09
2022-08-30T04:04:01.771Z,1018.09
2022-08-30T04:05:01.770Z,1018.11
2022-08-30T04:06:01.764Z,1018.08
2022-08-30T04:07:01.743Z,1018.10
2022-08-30T04:08:01.745Z,1018.08
2022-08-30T04:09:01.727Z,1018.08
2022-08-30T04:10:01.694Z,1018.14
2022-08-30T04:11:01.705Z,1018.11
2022-08-30T04:12:01.671Z,1018.11
2022-08-30T04:13:01.774Z,1018.12
2022-08-30T04:14:01.659Z,1018.11
2022-08-30T04:15:01.649Z,1018.11
2022-08-30T04:16:01.662Z,1018.13
2022-08-30T04:17:01.605Z,1018.13
2022-08-30T04:18:01.607Z,1018.18
2022-08-30T04:19:01.606Z,1018.11
2022-08-30T04:20:01.582Z,1018.16
2022-08-30T04:21:01.577Z,1018.17
2022-08-30T04:22:01.539Z,1018.15
2022-08-30T04:23:01.541Z,1018.19
2022-08-30T04:24:01.508Z,1018.20
2022-08-30T04:25:01.498Z,1018.21
2022-08-30T04:26:01.503Z,1018.21
2022-08-30T04:27:01.469Z,1018.28
2022-08-30T04:28:01.471Z,1018.31
2022-08-30T04:29:01.463Z,1018.29
2022-08-30T04:30:01.450Z,1018.34
2022-08-30T04:31:01.433Z,1018.34
2022-08-30T04:32:01.443Z,1018.35
2022-08-30T04:33:01.401Z,1018.32
2022-08-30T04:34:01.385Z,1018.36
2022-08-30T04:35:01.361Z,1018.34
2022-08-30T04:36:01.394Z,1018.36
2022-08-30T04:37:01.354Z,1018.35
2022-08-30T04:38:01.320Z,1018.33
2022-08-30T04:39:01.325Z,1018.35
2022-08-30T04:40:01.324Z,1018.36
2022-08-30T04:41:01.283Z,1018.30
2022-08-30T04:42:01.277Z,1018.36
2022-08-30T04:43:01.253Z,1018.32
2022-08-30T04:44:01.248Z,1018.36
2022-08-30T04:45:01.245Z,1018.34
2022-08-30T04:46:01.243Z,1018.36
2022-08-30T04:47:01.315Z,1018.34
2022-08-30T04:48:01.198Z,1018.38
2022-08-30T04:49:01.189Z,1018.34
2022-08-30T04:50:01.168Z,1018.37
2022-08-30T04:51:01.159Z,1018.35
2022-08-30T04:52:01.126Z,1018.37
2022-08-30T04:53:01.150Z,1018.35
2022-08-30T04:54:01.120Z,1018.40
2022-08-30T04:55:01.087Z,1018.45
2022-08-30T04:56:01.081Z,1018.44
2022-08-30T04:57:01.080Z,1018.44
2022-08-30T04:58:01.038Z,1018.40
2022-08-30T04:59:01.080Z,1018.39
2022-08-30T05:00:01.017Z,1018.42
2022-08-30T05:01:01.073Z,1018.41
2022-08-30T05:02:01.098Z,1018.45
2022-08-30T05:03:00.993Z,1018.40
2022-08-30T05:04:00.961Z,1018.44
2022-08-30T05:05:00.950Z,1018.47
2022-08-30T05:06:00.952Z,1018.48
2022-08-30T05:07:00.927Z,1018.43
2022-08-30T05:08:00.923Z,1018.46
2022-08-30T05:09:00.914Z,1018.47
2022-08-30T05:10:00.993Z,1018.49
2022-08-30T05:11:00.885Z,1018.51
2022-08-30T05:12:00.853Z,1018.54
2022-08-30T05:13:00.842Z,1018.54
2022-08-30T05:14:00.836Z,1018.59
2022-08-30T05:15:00.813Z,1018.61
2022-08-30T05:16:00.978Z,1018.58
2022-08-30T05:17:00.806Z,1018.56
2022-08-30T05:18:00.772Z,1018.56
2022-08-30T05:19:00.762Z,1018.57
2022-08-30T05:20:00.758Z,1018.56
2022-08-30T05:21:00.749Z,1018.60
2022-08-30T05:22:00.715Z,1018.58
2022-08-30T05:23:00.719Z,1018.58
2022-08-30T05:24:00.685Z,1018.55
2022-08-30T05:25:00.679Z,1018.60
2022-08-30T05:26:00.680Z,1018.58
2022-08-30T05:27:07.725Z,1018.55
2022-08-30T05:28:00.651Z,1018.60
2022-08-30T05:29:00.656Z,1018.61
2022-08-30T05:30:00.622Z,1018.59
2022-08-30T05:31:00.644Z,1018.62
2022-08-30T05:32:00.607Z,1018.59
2022-08-30T05:33:00.722Z,1018.60
2022-08-30T05:34:00.589Z,1018.61
2022-08-30T05:35:00.578Z,1018.59
2022-08-30T05:36:00.544Z,1018.61
2022-08-30T05:37:00.547Z,1018.62
2022-08-30T05:38:00.515Z,1018.62
2022-08-30T05:39:00.524Z,1018.63
2022-08-30T05:40:00.543Z,1018.63
2022-08-30T05:41:01.197Z,1018.62
2022-08-30T05:42:00.482Z,1018.62
2022-08-30T05:43:00.461Z,1018.61
2022-08-30T05:44:00.556Z,1018.63
2022-08-30T05:45:00.460Z,1018.63
2022-08-30T05:46:00.407Z,1018.67
2022-08-30T05:47:00.421Z,1018.66
2022-08-30T05:48:00.406Z,1018.67
2022-08-30T05:49:00.392Z,1018.72
2022-08-30T05:50:00.477Z,1018.71
2022-08-30T05:51:00.336Z,1018.73
2022-08-30T05:52:00.342Z,1018.75
2022-08-30T05:53:00.312Z,1018.79
2022-08-30T05:54:00.314Z,1018.77
2022-08-30T05:55:00.292Z,1018.77
2022-08-30T05:56:00.392Z,1018.73
2022-08-30T05:57:00.271Z,1018.75
2022-08-30T05:58:00.250Z,1018.80
2022-08-30T05:59:00.223Z,1018.77
2022-08-30T06:00:00.227Z,1018.75
2022-08-30T06:01:00.201Z,1018.77
2022-08-30T06:02:00.420Z,1018.72
2022-08-30T06:03:00.245Z,1018.74
2022-08-30T06:04:03.647Z,1018.77
2022-08-30T06:05:00.173Z,1018.75
2022-08-30T06:06:00.163Z,1018.74
2022-08-30T06:07:00.138Z,1018.79
2022-08-30T06:08:00.122Z,1018.78
2022-08-30T06:09:00.106Z,1018.79
2022-08-30T06:10:00.091Z,1018.78
2022-08-30T06:11:00.086Z,1018.78
2022-08-30T06:12:00.099Z,1018.77
2022-08-30T06:13:00.032Z,1018.82
2022-08-30T06:14:00.052Z,1018.82
2022-08-30T06:15:00.019Z,1018.81
2022-08-30T06:16:00.072Z,1018.81
2022-08-30T06:16:59.990Z,1018.72
2022-08-30T06:17:59.999Z,1018.74
2022-08-30T06:18:59.978Z,1018.69
2022-08-30T06:19:59.971Z,1018.68
2022-08-30T06:20:59.933Z,1018.64
2022-08-30T06:21:59.917Z,1018.66
2022-08-30T06:22:59.908Z,1018.62
2022-08-30T06:23:59.923Z,1018.59
2022-08-30T06:24:59.891Z,1018.55
2022-08-30T06:25:59.876Z,1018.57
2022-08-30T06:26:59.855Z,1018.56
2022-08-30T06:27:59.831Z,1018.58
2022-08-30T06:28:59.903Z,1018.58
2022-08-30T06:29:59.810Z,1018.57
2022-08-30T06:30:59.863Z,1018.61
2022-08-30T06:31:59.793Z,1018.60
2022-08-30T06:32:59.765Z,1018.57
2022-08-30T06:34:01.740Z,1018.64
2022-08-30T06:34:59.875Z,1018.61
2022-08-30T06:36:01.025Z,1018.65
2022-08-30T06:37:00.720Z,1018.65
2022-08-30T06:37:59.702Z,1018.67
2022-08-30T06:38:59.685Z,1018.62
2022-08-30T06:39:59.755Z,1018.65
2022-08-30T06:40:59.784Z,1018.64
2022-08-30T06:42:00.429Z,1018.67
2022-08-30T06:42:59.657Z,1018.65
2022-08-30T06:43:59.615Z,1018.60
2022-08-30T06:44:59.611Z,1018.60
2022-08-30T06:45:59.586Z,1018.59
2022-08-30T06:46:59.616Z,1018.56
2022-08-30T06:47:59.626Z,1018.59
2022-08-30T06:48:59.536Z,1018.61
2022-08-30T06:49:59.550Z,1018.62
2022-08-30T06:50:59.555Z,1018.60
2022-08-30T06:51:59.547Z,1018.63
2022-08-30T06:52:59.490Z,1018.61
2022-08-30T06:53:59.492Z,1018.65
2022-08-30T06:54:59.473Z,1018.63
2022-08-30T06:55:59.482Z,1018.62
2022-08-30T06:56:59.442Z,1018.62
2022-08-30T06:57:59.449Z,1018.69
2022-08-30T06:58:59.401Z,1018.67
2022-08-30T06:59:59.415Z,1018.69
2022-08-30T07:00:59.381Z,1018.67
2022-08-30T07:01:59.416Z,1018.65
2022-08-30T07:02:59.410Z,1018.65
2022-08-30T07:03:59.351Z,1018.64
2022-08-30T07:04:59.336Z,1018.66
2022-08-30T07:05:59.313Z,1018.65
2022-08-30T07:06:59.318Z,1018.67
2022-08-30T07:07:59.307Z,1018.64
2022-08-30T07:08:59.317Z,1018.64
2022-08-30T07:09:59.257Z,1018.63
2022-08-30T07:10:59.251Z,1018.67
2022-08-30T07:11:59.249Z,1018.69
2022-08-30T07:12:59.223Z,1018.68
2022-08-30T07:13:59.227Z,1018.66
2022-08-30T07:14:59.239Z,1018.67
2022-08-30T07:15:59.238Z,1018.67
2022-08-30T07:16:59.242Z,1018.67
2022-08-30T07:17:59.170Z,1018.69
2022-08-30T07:18:59.132Z,1018.68
2022-08-30T07:19:59.140Z,1018.68
2022-08-30T07:20:59.136Z,1018.68
2022-08-30T07:21:59.111Z,1018.67
2022-08-30T07:22:59.095Z,1018.70
2022-08-30T07:23:59.073Z,1018.70
2022-08-30T07:24:59.057Z,1018.72
2022-08-30T07:25:59.065Z,1018.74
2022-08-30T07:26:59.054Z,1018.71
2022-08-30T07:27:59.023Z,1018.76
2022-08-30T07:28:59.015Z,1018.75
2022-08-30T07:29:58.982Z,1018.74
2022-08-30T07:30:59.064Z,1018.76
2022-08-30T07:31:59.106Z,1018.78
2022-08-30T07:32:58.941Z,1018.75
2022-08-30T07:33:58.950Z,1018.81
2022-08-30T07:34:58.935Z,1018.76
2022-08-30T07:35:58.903Z,1018.72
2022-08-30T07:36:58.907Z,1018.72
2022-08-30T07:37:59.004Z,1018.76
2022-08-30T07:38:58.869Z,1018.77
2022-08-30T07:39:58.897Z,1018.71
2022-08-30T07:40:58.837Z,1018.75
2022-08-30T07:41:58.840Z,1018.74
2022-08-30T07:42:58.818Z,1018.74
2022-08-30T07:43:58.924Z,1018.74
2022-08-30T07:44:58.796Z,1018.74
2022-08-30T07:45:58.852Z,1018.74
2022-08-30T07:46:58.747Z,1018.73
2022-08-30T07:47:58.770Z,1018.76
2022-08-30T07:48:58.718Z,1018.79
2022-08-30T07:49:58.744Z,1018.78
2022-08-30T07:51:03.099Z,1018.83
2022-08-30T07:51:59.688Z,1018.81
2022-08-30T07:52:58.685Z,1018.81
2022-08-30T07:53:58.671Z,1018.85
2022-08-30T07:54:58.759Z,1018.86
2022-08-30T07:55:58.645Z,1018.85
2022-08-30T07:56:58.634Z,1018.90
2022-08-30T07:57:58.635Z,1018.89
2022-08-30T07:58:58.603Z,1018.88
2022-08-30T07:59:58.596Z,1018.93
2022-08-30T08:00:58.607Z,1018.94
2022-08-30T08:01:58.624Z,1018.94
2022-08-30T08:02:58.620Z,1018.93
2022-08-30T08:03:58.537Z,1018.92
2022-08-30T08:04:58.527Z,1018.95
2022-08-30T08:05:58.525Z,1018.91
2022-08-30T08:06:58.497Z,1018.97
2022-08-30T08:07:58.498Z,1018.99
2022-08-30T08:08:58.465Z,1018.99
2022-08-30T08:09:58.484Z,1018.92
2022-08-30T08:10:58.448Z,1018.93
2022-08-30T08:11:58.436Z,1018.94
2022-08-30T08:12:58.409Z,1018.99
2022-08-30T08:13:58.411Z,1018.95
2022-08-30T08:14:58.392Z,1018.91
2022-08-30T08:15:58.432Z,1018.93
2022-08-30T08:16:58.375Z,1018.96
2022-08-30T08:17:58.339Z,1018.99
2022-08-30T08:18:58.334Z,1019.01
2022-08-30T08:19:58.323Z,1019.02
2022-08-30T08:20:58.289Z,1019.02
2022-08-30T08:22:19.557Z,1019.05
2022-08-30T08:22:59.289Z,1019.01
2022-08-30T08:23:58.274Z,1018.97
2022-08-30T08:24:58.256Z,1019.01
2022-08-30T08:25:58.235Z,1019.01
2022-08-30T08:26:58.210Z,1018.99
2022-08-30T08:27:58.326Z,1019.03
2022-08-30T08:28:58.206Z,1019.07
2022-08-30T08:29:58.174Z,1019.00
2022-08-30T08:30:58.224Z,1018.98
2022-08-30T08:31:58.168Z,1018.96
2022-08-30T08:32:58.136Z,1019.00
2022-08-30T08:33:58.174Z,1018.93
2022-08-30T08:35:00.072Z,1018.99
2022-08-30T08:35:58.108Z,1018.95
2022-08-30T08:36:58.102Z,1018.99
2022-08-30T08:37:58.087Z,1018.97
2022-08-30T08:38:58.086Z,1018.97
2022-08-30T08:39:58.116Z,1019.03
2022-08-30T08:40:58.035Z,1019.00
2022-08-30T08:41:58.043Z,1019.02
2022-08-30T08:42:58.021Z,1019.00
2022-08-30T08:43:58.001Z,1018.98
2022-08-30T08:44:58.118Z,1018.95
2022-08-30T08:45:58.017Z,1018.98
2022-08-30T08:46:57.949Z,1019.02
2022-08-30T08:47:57.965Z,1018.98
2022-08-30T08:49:00.457Z,1019.05
2022-08-30T08:49:57.936Z,1019.00
2022-08-30T08:51:00.711Z,1019.07
2022-08-30T08:51:57.891Z,1019.01
2022-08-30T08:52:57.906Z,1018.95
2022-08-30T08:53:57.862Z,1018.98
2022-08-30T08:54:59.007Z,1018.98
2022-08-30T08:55:57.859Z,1019.00
2022-08-30T08:56:57.933Z,1019.00
2022-08-30T08:57:57.820Z,1018.92
2022-08-30T08:58:57.798Z,1018.93
2022-08-30T08:59:57.785Z,1018.95
2022-08-30T09:00:57.755Z,1018.98
2022-08-30T09:01:58.159Z,1018.98
2022-08-30T09:02:57.750Z,1018.99
2022-08-30T09:03:57.718Z,1018.98
2022-08-30T09:04:57.793Z,1019.03
2022-08-30T09:05:57.697Z,1019.02
2022-08-30T09:06:57.689Z,1019.00
2022-08-30T09:07:57.682Z,1018.99
2022-08-30T09:08:57.647Z,1018.99
2022-08-30T09:09:57.652Z,1018.98
2022-08-30T09:10:57.633Z,1018.97
2022-08-30T09:11:57.632Z,1018.93
2022-08-30T09:13:00.051Z,1018.94
2022-08-30T09:13:57.581Z,1018.91
2022-08-30T09:14:57.571Z,1018.97
2022-08-30T09:15:57.610Z,1018.91
2022-08-30T09:16:57.555Z,1018.95
2022-08-30T09:17:57.627Z,1018.90
2022-08-30T09:18:57.515Z,1018.91
2022-08-30T09:19:57.516Z,1018.88
2022-08-30T09:20:57.494Z,1018.89
2022-08-30T09:21:57.486Z,1018.85
2022-08-30T09:22:57.589Z,1018.81
2022-08-30T09:23:57.437Z,1018.84
2022-08-30T09:24:57.439Z,1018.87
2022-08-30T09:25:57.405Z,1018.88
2022-08-30T09:26:57.392Z,1018.85
2022-08-30T09:27:57.399Z,1018.80
2022-08-30T09:28:57.380Z,1018.83
2022-08-30T09:29:57.380Z,1018.75
2022-08-30T09:30:57.403Z,1018.76
2022-08-30T09:32:25.107Z,1018.82
2022-08-30T09:32:58.308Z,1018.87
2022-08-30T09:33:57.461Z,1018.82
2022-08-30T09:34:57.336Z,1018.84
2022-08-30T09:35:57.279Z,1018.78
2022-08-30T09:36:57.273Z,1018.74
2022-08-30T09:37:57.251Z,1018.79
2022-08-30T09:38:57.231Z,1018.77
2022-08-30T09:39:57.280Z,1018.79
2022-08-30T09:40:57.211Z,1018.77
2022-08-30T09:41:57.204Z,1018.73
2022-08-30T09:42:57.186Z,1018.74
2022-08-30T09:43:57.172Z,1018.75
2022-08-30T09:44:57.166Z,1018.73
2022-08-30T09:45:57.166Z,1018.73
2022-08-30T09:46:57.135Z,1018.74
2022-08-30T09:47:57.135Z,1018.72
2022-08-30T09:48:57.117Z,1018.71
2022-08-30T09:49:57.214Z,1018.75
2022-08-30T09:50:57.075Z,1018.71
2022-08-30T09:51:57.070Z,1018.70
2022-08-30T09:52:57.056Z,1018.66
2022-08-30T09:54:58.070Z,1018.65
2022-08-30T09:55:56.996Z,1018.71
2022-08-30T09:56:57.012Z,1018.70
2022-08-30T09:57:56.968Z,1018.69
2022-08-30T09:58:56.969Z,1018.66
2022-08-30T09:59:56.962Z,1018.62
2022-08-30T10:00:57.024Z,1018.65
2022-08-30T10:01:56.932Z,1018.63
2022-08-30T10:02:56.934Z,1018.68
2022-08-30T10:03:56.899Z,1018.71
2022-08-30T10:04:56.889Z,1018.69
2022-08-30T10:05:56.885Z,1018.69
2022-08-30T10:06:56.884Z,1018.66
2022-08-30T10:07:56.845Z,1018.66
2022-08-30T10:08:56.845Z,1018.67
2022-08-30T10:09:56.828Z,1018.67
2022-08-30T10:10:56.813Z,1018.67
2022-08-30T10:11:56.925Z,1018.61
2022-08-30T10:12:56.775Z,1018.56
2022-08-30T10:13:56.783Z,1018.56
2022-08-30T10:14:56.803Z,1018.51
2022-08-30T10:15:56.735Z,1018.50
2022-08-30T10:16:57.082Z,1018.55
2022-08-30T10:17:56.715Z,1018.51
2022-08-30T10:18:56.697Z,1018.46
2022-08-30T10:19:56.699Z,1018.46
2022-08-30T10:20:56.689Z,1018.42
2022-08-30T10:21:56.659Z,1018.46
2022-08-30T10:22:58.612Z,1018.45
2022-08-30T10:23:56.651Z,1018.40
2022-08-30T10:24:56.627Z,1018.43
2022-08-30T10:25:56.612Z,1018.37
2022-08-30T10:26:56.613Z,1018.40
2022-08-30T10:27:57.170Z,1018.40
2022-08-30T10:28:56.584Z,1018.43
2022-08-30T10:29:56.549Z,1018.44
2022-08-30T10:30:56.541Z,1018.42
2022-08-30T10:31:56.534Z,1018.41
2022-08-30T10:32:56.511Z,1018.39
2022-08-30T10:33:56.515Z,1018.39
2022-08-30T10:34:56.506Z,1018.44
2022-08-30T10:35:56.471Z,1018.36
2022-08-30T10:36:56.463Z,1018.36
2022-08-30T10:37:56.457Z,1018.33
2022-08-30T10:38:56.449Z,1018.32
2022-08-30T10:39:56.539Z,1018.24
2022-08-30T10:40:56.419Z,1018.25
2022-08-30T10:41:56.385Z,1018.26
2022-08-30T10:42:56.381Z,1018.25
2022-08-30T10:43:56.400Z,1018.30
2022-08-30T10:44:56.348Z,1018.30
2022-08-30T10:45:56.348Z,1018.28
2022-08-30T10:46:56.341Z,1018.28
2022-08-30T10:47:56.298Z,1018.33
2022-08-30T10:48:56.313Z,1018.31
2022-08-30T10:49:56.288Z,1018.29
2022-08-30T10:50:56.270Z,1018.33
2022-08-30T10:52:57.251Z,1018.26
2022-08-30T10:53:56.243Z,1018.23
2022-08-30T10:54:56.248Z,1018.20
2022-08-30T10:55:56.200Z,1018.22
2022-08-30T10:56:56.198Z,1018.26
2022-08-30T10:57:56.173Z,1018.26
2022-08-30T10:58:56.170Z,1018.26
2022-08-30T10:59:56.167Z,1018.24
2022-08-30T11:00:56.192Z,1018.22
2022-08-30T11:01:56.148Z,1018.21
2022-08-30T11:02:56.119Z,1018.20
2022-08-30T11:03:56.095Z,1018.18
2022-08-30T11:04:56.218Z,1018.18
2022-08-30T11:05:56.065Z,1018.15
2022-08-30T11:06:56.056Z,1018.14
2022-08-30T11:07:56.053Z,1018.17
2022-08-30T11:08:56.043Z,1018.17
2022-08-30T11:09:56.006Z,1018.16
2022-08-30T11:10:56.028Z,1018.15
2022-08-30T11:11:55.992Z,1018.16
2022-08-30T11:12:55.977Z,1018.17
2022-08-30T11:13:57.538Z,1018.10
2022-08-30T11:14:55.964Z,1018.12
2022-08-30T11:15:55.954Z,1018.10
2022-08-30T11:16:55.944Z,1018.09
2022-08-30T11:17:55.901Z,1018.10
2022-08-30T11:18:55.891Z,1018.07
2022-08-30T11:19:55.905Z,1018.08
2022-08-30T11:20:55.871Z,1018.07
2022-08-30T11:21:55.988Z,1018.09
2022-08-30T11:22:55.856Z,1018.04
2022-08-30T11:23:55.827Z,1018.10
2022-08-30T11:24:55.815Z,1018.09
2022-08-30T11:25:57.642Z,1018.06
2022-08-30T11:26:55.798Z,1018.08
2022-08-30T11:27:55.776Z,1018.10
2022-08-30T11:28:55.773Z,1018.04
2022-08-30T11:29:55.737Z,1018.05
2022-08-30T11:30:55.727Z,1017.96
2022-08-30T11:31:55.724Z,1017.99
2022-08-30T11:32:55.819Z,1018.04
2022-08-30T11:33:55.679Z,1018.01
2022-08-30T11:34:55.697Z,1017.97
2022-08-30T11:35:55.676Z,1018.02
2022-08-30T11:36:55.674Z,1017.97
2022-08-30T11:37:55.631Z,1017.99
2022-08-30T11:38:55.638Z,1017.95
2022-08-30T11:39:55.631Z,1018.00
2022-08-30T11:40:55.615Z,1017.96
2022-08-30T11:41:55.584Z,1018.03
2022-08-30T11:42:55.572Z,1018.02
2022-08-30T11:43:55.600Z,1017.96
2022-08-30T11:44:55.553Z,1018.03
2022-08-30T11:45:55.598Z,1018.01
2022-08-30T11:46:55.541Z,1018.03
2022-08-30T11:47:55.503Z,1018.00
2022-08-30T11:48:55.942Z,1018.00
2022-08-30T11:49:55.475Z,1017.99
2022-08-30T11:50:55.473Z,1018.01
2022-08-30T11:52:23.614Z,1018.00
2022-08-30T11:52:56.450Z,1017.98
2022-08-30T11:53:55.441Z,1017.98
2022-08-30T11:54:55.549Z,1017.95
2022-08-30T11:55:55.397Z,1017.99
2022-08-30T11:56:55.409Z,1017.98
2022-08-30T11:57:55.372Z,1018.02
2022-08-30T11:58:55.368Z,1018.01
2022-08-30T11:59:55.363Z,1017.99
2022-08-30T12:00:55.351Z,1018.00
2022-08-30T12:01:55.572Z,1018.03
2022-08-30T12:02:55.487Z,1017.98
2022-08-30T12:03:55.300Z,1018.04
2022-08-30T12:04:55.304Z,1017.94
2022-08-30T12:05:55.392Z,1017.97
2022-08-30T12:06:55.273Z,1017.91